Hlavní strana
METAR-TAF:

METAR-TAF

Letiště :

Mezinárodní letiště Káhira

Káhira, Egypt

zeměpisná šířka: 30-08N, zeměpisná délka: 031-24E, výška: 64 m

Aktuální stav počasí

Zpráva byla vytvořena před 10 minutami, v 19:00 UTC
Severní vítr 11 kt
Teplota 19°C
Vlhkost vzduchu 52%
Tlak 1018 hPa
Viditelnost 10 km a více
Žádná oblačnost pod 1500 m, nevyskytují se cumulonimby.

METAR: HECA 061900Z 36011KT CAVOK 19/09 Q1018 NOSIG

Čas: 21:10 (19:10 UTC)

Předpověď počasí

Zpráva byla vytvořena před 2 hodinami a 10 minutami, v 17:00 UTC
Předpověď platná od 06 v 18 UTC do 07 v 24 UTC
Severoseverozápadní vítr 10 kt
Viditelnost: 6000 m
Polojasno ve výšce 2500 ft
Pravděpodobnost 40%
od 07 v 00 UTC do 07 v 07 UTC
vítr z různých směrů 3 kt
Viditelnost: 4000 m
kouřmo

TAF: HECA 061700Z 0618/0724 34010KT 6000 SCT025 PROB40 0700/0707 VRB03KT 4000 BR

Stav a předpovědi počasí z více než 4 000 letišť (zprávy METAR a TAF).

Červené a žluté tečky na mapě představují dostupné meteorologické stanice.

Když kurzor umístíte na tečku, zobrazí se název stanice.

Pak kliknutím zobrazíte stav a předpověď počasí.

Chcete-li změnit mapu, kliknutím na zelené tlačítko se znaménkem +mapu přiblížíte, kliknutím na zelené tlačítko se znaménkem – mapu oddálíte a kliknutím na zelené šipky přejdete na sousední mapy.


METAR-TAF: